createdAt,value
2022-08-31T00:04:18.641Z,82.70
2022-08-31T00:09:22.963Z,82.30
2022-08-31T00:14:26.198Z,81.80
2022-08-31T00:19:29.616Z,81.60
2022-08-31T00:24:34.077Z,81.50
2022-08-31T00:29:36.927Z,81.60
2022-08-31T00:34:39.764Z,81.60
2022-08-31T00:39:47.962Z,81.30
2022-08-31T00:44:50.807Z,81.10
2022-08-31T00:49:53.875Z,80.80
2022-08-31T00:55:00.112Z,80.20
2022-08-31T01:00:05.110Z,80.70
2022-08-31T01:05:08.956Z,80.70
2022-08-31T01:10:13.241Z,80.90
2022-08-31T01:15:16.636Z,81.10
2022-08-31T01:20:22.861Z,81.10
2022-08-31T01:25:33.799Z,81.10
2022-08-31T01:30:37.714Z,80.90
2022-08-31T01:35:41.802Z,80.80
2022-08-31T01:40:47.985Z,81.20
2022-08-31T01:45:50.993Z,81.00
2022-08-31T01:50:53.857Z,81.10
2022-08-31T01:55:58.091Z,81.00
2022-08-31T02:01:01.386Z,80.70
2022-08-31T02:06:08.265Z,80.70
2022-08-31T02:11:12.491Z,80.60
2022-08-31T02:16:15.496Z,80.50
2022-08-31T02:21:18.646Z,80.80
2022-08-31T02:26:23.460Z,80.50
2022-08-31T02:31:26.386Z,80.50
2022-08-31T02:36:29.355Z,80.60
2022-08-31T02:41:34.183Z,80.40
2022-08-31T02:46:37.108Z,80.60
2022-08-31T02:51:40.566Z,80.40
2022-08-31T02:56:44.771Z,80.50
2022-08-31T03:01:48.125Z,80.50
2022-08-31T03:06:51.047Z,80.60
2022-08-31T03:11:55.277Z,80.40
2022-08-31T03:16:58.132Z,80.40
2022-08-31T03:22:01.091Z,80.30
2022-08-31T03:27:05.951Z,80.50
2022-08-31T03:32:08.788Z,80.40
2022-08-31T03:37:11.662Z,80.10
2022-08-31T03:42:15.977Z,80.00
2022-08-31T03:47:18.846Z,80.20
2022-08-31T03:52:21.807Z,80.20
2022-08-31T03:57:26.400Z,80.20
2022-08-31T04:02:31.101Z,80.00
2022-08-31T04:07:42.094Z,80.20
2022-08-31T04:12:47.236Z,80.00
2022-08-31T04:17:56.963Z,80.10
2022-08-31T04:23:00.355Z,80.10
2022-08-31T04:28:04.673Z,80.00
2022-08-31T04:33:07.923Z,80.40
2022-08-31T04:38:12.174Z,80.30
2022-08-31T04:43:16.700Z,80.30
2022-08-31T04:48:19.590Z,80.10
2022-08-31T04:53:22.528Z,80.20
2022-08-31T04:58:26.751Z,80.20
2022-08-31T05:03:30.679Z,80.00
2022-08-31T05:08:33.557Z,80.00
2022-08-31T05:13:38.428Z,80.30
2022-08-31T05:18:42.358Z,80.10
2022-08-31T05:23:47.095Z,80.30
2022-08-31T05:28:51.412Z,80.60
2022-08-31T05:33:54.327Z,80.30
2022-08-31T05:39:01.113Z,80.40
2022-08-31T05:44:06.396Z,79.70
2022-08-31T05:49:10.848Z,79.50
2022-08-31T05:54:15.968Z,79.10
2022-08-31T05:59:20.770Z,79.10
2022-08-31T06:04:23.601Z,78.60
2022-08-31T06:09:27.153Z,78.40
2022-08-31T06:14:32.041Z,78.40
2022-08-31T06:19:37.592Z,78.40
2022-08-31T06:24:40.386Z,78.20
2022-08-31T06:29:44.672Z,78.00
2022-08-31T06:34:47.531Z,77.90
2022-08-31T06:39:52.482Z,77.50
